Caribbean Princess — ZCDG8 — position and weather

sailwx.info

Track history (hours):
 
Tides and Currents Weather Stations Pressure Air Temp Water Temp Dewpoint Dewpoint Depression Visibility Wind Speed Wind Dir Waves Ship Positions

Caribbean Princess

Operator: Princess Cruises

Last reported at 2017-Aug-23 01:54 UTC. Time now 2017-Aug-23 21:29 UTC.
Position N 55°23' W 004°60'.

Type: Passenger vessel. MMSI: 310423000.

Date/timePositionNaut miles runAvg speedWind from/ knotsBaromVisibWave heightAir tempDewpointWater temp
2017-Aug-23 01:54N 55°23' W 004°60'15 9.6
2017-Aug-23 00:22N 55°13' W 005°18'410.7
2017-Aug-23 00:00N 55°10' W 005°23'510.0
2017-Aug-22 23:30N 55°09' W 005°31'918.0
2017-Aug-22 23:00N 55°00' W 005°30'445.4 140 / 301008.9 5.4 16.010.313.0
2017-Aug-22 22:54N 55°03' W 005°35'511.3
2017-Aug-22 22:25N 54°58' W 005°33'512.2
2017-Aug-22 22:00N 54°53' W 005°31'511.0
2017-Aug-22 21:30N 54°48' W 005°31'612.4
2017-Aug-22 21:00N 54°43' W 005°39'5 9.5
2017-Aug-22 20:30N 54°41' W 005°47'5 9.9
2017-Aug-22 19:59N 54°38' W 005°53'1 0.3
2017-Aug-22 16:21N 54°37' W 005°54'0 0.0
2017-Aug-22 15:51N 54°37' W 005°54'0 0.0
2017-Aug-22 15:15N 54°37' W 005°54'0 0.0
2017-Aug-22 12:21N 54°37' W 005°54'0 0.0
2017-Aug-22 11:51N 54°37' W 005°54'0 0.0
2017-Aug-22 10:36N 54°37' W 005°54'0 0.0
2017-Aug-22 10:18N 54°37' W 005°54'0 0.0
2017-Aug-22 10:00N 54°37' W 005°54'0 0.0
2017-Aug-22 09:30N 54°37' W 005°54'0 0.0
2017-Aug-22 07:55N 54°37' W 005°54'1 1.5
2017-Aug-22 07:29N 54°38' W 005°53'3 7.1
2017-Aug-22 07:00N 54°40' W 005°50'5 9.4
2017-Aug-22 06:30N 54°43' W 005°43'5 9.5
2017-Aug-22 06:00N 54°44' W 005°35'612.2
2017-Aug-22 05:30N 54°46' W 005°25'611.7
2017-Aug-22 05:00N 54°41' W 005°18'612.4
2017-Aug-22 04:30N 54°36' W 005°12'612.8
2017-Aug-22 04:00N 54°31' W 005°06'612.7
2017-Aug-22 03:30N 54°26' W 004°60'612.1
2017-Aug-22 03:00N 54°20' W 005°03'612.6
2017-Aug-22 02:30N 54°14' W 005°07'612.5
2017-Aug-22 02:00N 54°08' W 005°11'611.3
2017-Aug-22 01:29N 54°04' W 005°17'611.3
2017-Aug-22 00:59N 53°59' W 005°22'711.4
2017-Aug-22 00:23N 53°53' W 005°27'2411.1
2017-Aug-21 22:14N 53°32' W 005°47'311.8
2017-Aug-21 21:57N 53°29' W 005°49'612.0
2017-Aug-21 21:27N 53°24' W 005°55'512.5
2017-Aug-21 21:00N 53°20' W 006°02'6 0.3
2017-Aug-20 20:55N 53°21' W 006°13'0 0.0
2017-Aug-20 20:30N 53°21' W 006°13'0 0.0
2017-Aug-20 19:47N 53°21' W 006°13'0 0.0
2017-Aug-20 19:25N 53°21' W 006°13'0 0.0
2017-Aug-20 18:58N 53°21' W 006°13'0 0.0
2017-Aug-20 18:28N 53°21' W 006°13'0 0.0
2017-Aug-20 17:55N 53°21' W 006°13'0 0.0
2017-Aug-20 17:26N 53°21' W 006°13'0 0.0
2017-Aug-20 17:00N 53°21' W 006°13'0 0.0
2017-Aug-20 16:30N 53°21' W 006°13'0 0.0
2017-Aug-20 16:00N 53°21' W 006°13'0 0.0
2017-Aug-20 15:30N 53°21' W 006°13'0 0.0
2017-Aug-20 14:59N 53°21' W 006°13'0 0.0
2017-Aug-20 14:21N 53°21' W 006°13'0 0.0
2017-Aug-20 13:57N 53°21' W 006°13'0 0.0
2017-Aug-20 13:29N 53°21' W 006°13'0 0.0
2017-Aug-20 12:59N 53°21' W 006°13'0 0.0
2017-Aug-20 12:29N 53°21' W 006°13'0 0.0
2017-Aug-20 11:58N 53°21' W 006°13'0 0.0
2017-Aug-20 11:09N 53°21' W 006°13'0 0.0
2017-Aug-20 11:00N 53°21' W 006°13'0 0.0
2017-Aug-20 10:26N 53°21' W 006°13'0 0.0
2017-Aug-20 09:53N 53°21' W 006°13'0 0.0
2017-Aug-20 09:30N 53°21' W 006°13'0 0.3
2017-Aug-20 09:00N 53°21' W 006°13'4 7.1
2017-Aug-20 08:30N 53°21' W 006°07'510.1
2017-Aug-20 08:00N 53°21' W 005°59'612.0
2017-Aug-20 07:30N 53°18' W 005°50'713.5
2017-Aug-20 07:00N 53°13' W 005°43'3115.6
2017-Aug-20 05:00N 52°41' W 005°45'1019.5
2017-Aug-20 04:30N 52°32' W 005°49'918.9
2017-Aug-20 04:00N 52°23' W 005°53'918.2
2017-Aug-20 03:30N 52°14' W 005°57'817.0
2017-Aug-20 03:00N 52°06' W 006°03'816.1
2017-Aug-20 02:30N 52°02' W 006°14'917.2
2017-Aug-20 02:00N 52°00' W 006°28'2230.4
2017-Aug-20 02:00N 52°00' W 006°24'1121.9 190 / 51021.810.8 14.010.215.0
2017-Aug-20 01:30N 51°58' W 006°41'917.4
2017-Aug-20 01:00N 51°56' W 006°55'917.2
2017-Aug-20 00:30N 51°54' W 007°08'918.2
2017-Aug-20 00:00N 51°51' W 007°22'919.0
2017-Aug-19 23:30N 51°49' W 007°37'1019.1
2017-Aug-19 23:00N 51°47' W 007°52'918.4
2017-Aug-19 22:30N 51°44' W 008°07'611.7
2017-Aug-19 22:01N 51°46' W 008°15'5 9.7
2017-Aug-19 21:30N 51°51' W 008°17'1 1.4
2017-Aug-19 20:59N 51°51' W 008°18'0 0.0
2017-Aug-19 20:30N 51°51' W 008°18'0 0.0
2017-Aug-19 19:58N 51°51' W 008°18'0 0.0
2017-Aug-19 19:28N 51°51' W 008°18'0 0.0
2017-Aug-19 18:58N 51°51' W 008°18'0 0.0
2017-Aug-19 18:28N 51°51' W 008°18'0 0.0
2017-Aug-19 17:58N 51°51' W 008°18'0 0.0
2017-Aug-19 17:28N 51°51' W 008°18'0 0.0
2017-Aug-19 16:58N 51°51' W 008°18'0 0.0
2017-Aug-19 16:28N 51°51' W 008°18'0 0.0
2017-Aug-19 15:58N 51°51' W 008°18'0 0.0
2017-Aug-19 15:28N 51°51' W 008°18'0 0.0
2017-Aug-19 15:00N 51°51' W 008°18'0 0.0
2017-Aug-19 14:00N 51°51' W 008°18'0 0.0
2017-Aug-19 13:30N 51°51' W 008°18'0 0.0
2017-Aug-19 13:00N 51°51' W 008°18'0 0.0
2017-Aug-19 12:29N 51°51' W 008°18'0 0.0
2017-Aug-19 11:59N 51°51' W 008°18'0 0.0
2017-Aug-19 11:29N 51°51' W 008°18'0 0.0
2017-Aug-19 10:59N 51°51' W 008°18'0 0.0
2017-Aug-19 10:30N 51°51' W 008°18'2 3.2
2017-Aug-19 10:01N 51°50' W 008°16'612.7
2017-Aug-19 09:30N 51°44' W 008°14'612.2
2017-Aug-19 09:01N 51°40' W 008°08'917.5
2017-Aug-19 08:31N 51°34' W 007°58'917.4
2017-Aug-19 08:01N 51°28' W 007°47'917.3
2017-Aug-19 07:31N 51°22' W 007°37'7751.0
2017-Aug-19 06:00N 50°06' W 007°12'4914.5 280 / 371018.810.8 15.013.215.0
2017-Aug-19 02:38N 50°26' W 006°03'316.8
2017-Aug-19 02:29N 50°24' W 005°60'816.0
2017-Aug-19 02:01N 50°18' W 005°54'1218.1
2017-Aug-19 01:21N 50°06' W 005°55'618.1
2017-Aug-19 01:00N 49°59' W 005°54'2715.8
2017-Aug-18 23:16N 49°48' W 005°16'517.3
2017-Aug-18 22:57N 49°46' W 005°08'2917.3
2017-Aug-18 21:16N 49°39' W 004°24'617.6
2017-Aug-18 20:54N 49°38' W 004°14'717.7
2017-Aug-18 20:30N 49°36' W 004°04'917.8
2017-Aug-18 20:00N 49°34' W 003°50'917.7
2017-Aug-18 19:29N 49°32' W 003°37'816.1
2017-Aug-18 18:58N 49°30' W 003°24'4 9.1
2017-Aug-18 18:29N 49°29' W 003°17'19 1.1
2017-Aug-18 01:48N 49°39' W 002°53'412.3
2017-Aug-18 01:28N 49°43' W 002°53'912.5
2017-Aug-18 00:47N 49°52' W 002°56'412.9
2017-Aug-18 00:30N 49°55' W 002°58'611.7
2017-Aug-18 00:00N 49°58' W 002°51'713.4
2017-Aug-17 23:30N 50°00' W 002°41'2214.2
2017-Aug-17 21:59N 50°09' W 002°10'814.9
2017-Aug-17 21:26N 50°13' W 001°59'614.4
2017-Aug-17 21:00N 50°16' W 001°50'713.9
2017-Aug-17 20:29N 50°19' W 001°41'714.0
2017-Aug-17 20:00N 50°23' W 001°31'815.9
2017-Aug-17 19:30N 50°26' W 001°21'917.4
2017-Aug-17 19:01N 50°31' W 001°09'816.1
2017-Aug-17 18:31N 50°36' W 000°60'713.1
2017-Aug-17 18:00N 50°43' W 000°60'815.2
2017-Aug-17 17:30N 50°46' W 001°11'510.4
2017-Aug-17 17:01N 50°49' W 001°18'510.2
2017-Aug-17 16:30N 50°52' W 001°23'1 0.1
2017-Aug-17 08:10N 50°53' W 001°24'0 0.0
2017-Aug-17 07:58N 50°53' W 001°24'0 0.0
2017-Aug-17 07:28N 50°53' W 001°24'0 0.0
2017-Aug-17 06:58N 50°53' W 001°24'0 0.0
2017-Aug-17 06:28N 50°53' W 001°24'0 0.0
2017-Aug-17 05:58N 50°53' W 001°24'0 0.0
2017-Aug-17 05:28N 50°53' W 001°24'0 0.0
2017-Aug-17 04:58N 50°53' W 001°24'0 0.0
2017-Aug-17 04:28N 50°53' W 001°24'0 0.0
2017-Aug-17 03:58N 50°53' W 001°24'0 0.6
2017-Aug-17 03:30N 50°53' W 001°24'510.4
2017-Aug-17 03:00N 50°50' W 001°18'4 8.9
2017-Aug-17 02:30N 50°46' W 001°14'815.1
2017-Aug-17 02:00N 50°44' W 001°03'510.4
2017-Aug-17 01:30N 50°39' W 000°58'611.5
2017-Aug-17 01:01N 50°34' W 000°59'612.0
2017-Aug-17 00:30N 50°28' W 000°54'611.9
2017-Aug-17 00:00N 50°24' W 000°48'611.3
2017-Aug-16 23:30N 50°18' W 000°46'611.3
2017-Aug-16 23:00N 50°13' W 000°44'611.5
2017-Aug-16 22:30N 50°07' W 000°40'611.6
2017-Aug-16 22:01N 50°02' W 000°37'611.6
2017-Aug-16 21:30N 49°57' W 000°33'611.7
2017-Aug-16 21:01N 49°52' W 000°30'1512.2
2017-Aug-16 19:48N 49°37' W 000°24'414.3
2017-Aug-16 19:30N 49°35' W 000°19'713.4
2017-Aug-16 18:59N 49°32' W 000°09'611.4
2017-Aug-16 18:30N 49°30' W 000°01'510.8
2017-Aug-16 18:00N 49°29' E 000°06'0 0.2
2017-Aug-16 17:29N 49°29' E 000°06'0 0.0
2017-Aug-16 16:58N 49°29' E 000°06'0 0.0
2017-Aug-16 16:30N 49°29' E 000°06'0 0.0
2017-Aug-16 16:00N 49°29' E 000°06'0 0.0
2017-Aug-16 15:29N 49°29' E 000°06'0 0.0
2017-Aug-16 15:00N 49°29' E 000°06'0 0.0
2017-Aug-16 14:30N 49°29' E 000°06'0 0.0
2017-Aug-16 14:00N 49°29' E 000°06'0 0.0
2017-Aug-16 13:29N 49°29' E 000°06'0 0.0
2017-Aug-16 12:57N 49°29' E 000°06'0 0.0
2017-Aug-16 12:30N 49°29' E 000°06'0 0.0
2017-Aug-16 11:59N 49°29' E 000°06'0 0.0
2017-Aug-16 11:29N 49°29' E 000°06'0 0.0
2017-Aug-16 10:58N 49°29' E 000°06'0 0.0
2017-Aug-16 10:30N 49°29' E 000°06'0 0.0
2017-Aug-16 10:00N 49°29' E 000°06'0 0.0
2017-Aug-16 09:29N 49°29' E 000°06'0 0.0
2017-Aug-16 08:59N 49°29' E 000°06'0 0.0
2017-Aug-16 08:29N 49°29' E 000°06'0 0.0
2017-Aug-16 08:00N 49°29' E 000°06'0 0.0
2017-Aug-16 07:30N 49°29' E 000°06'0 0.0
2017-Aug-16 07:00N 49°29' E 000°06'0 0.0
2017-Aug-16 06:29N 49°29' E 000°06'0 0.0
2017-Aug-16 05:58N 49°29' E 000°06'0 0.0
2017-Aug-16 05:30N 49°29' E 000°06'0 0.0
2017-Aug-16 05:00N 49°29' E 000°06'0 0.0
2017-Aug-16 04:30N 49°29' E 000°06'1 1.2
2017-Aug-16 04:00N 49°29' E 000°07'4 8.5
2017-Aug-16 03:30N 49°30' E 000°01'713.6
2017-Aug-16 03:00N 49°32' W 000°09'611.2
2017-Aug-16 02:30N 49°34' W 000°17'713.7
2017-Aug-16 02:00N 49°40' W 000°21'263969.0
2017-Aug-16 02:00N 49°48' E 000°18'2643.3 250 / 141021.310.8 16.314.015.0
2017-Aug-16 01:23N 49°48' W 000°23'512.9
2017-Aug-16 01:00N 49°53' W 000°19'713.1
2017-Aug-16 00:31N 49°59' W 000°14'713.5
2017-Aug-16 00:00N 50°05' W 000°09'713.5
2017-Aug-15 23:30N 50°11' W 000°05'714.2
2017-Aug-15 23:00N 50°18' W 000°07'713.8
2017-Aug-15 22:30N 50°24' W 000°09'713.9
2017-Aug-15 22:01N 50°28' E 000°01'714.5
2017-Aug-15 21:30N 50°30' E 000°12'714.5
2017-Aug-15 21:00N 50°32' E 000°23'714.4
2017-Aug-15 20:30N 50°35' E 000°33'714.0
2017-Aug-15 20:00N 50°38' E 000°43'816.0
2017-Aug-15 19:31N 50°43' E 000°53'816.7
2017-Aug-15 19:01N 50°48' E 001°04'816.2
2017-Aug-15 18:30N 50°52' E 001°15'815.3
2017-Aug-15 18:01N 50°58' E 001°23'715.0
2017-Aug-15 17:31N 51°03' E 001°31'815.0
2017-Aug-15 17:01N 51°09' E 001°39'815.4
2017-Aug-15 16:31N 51°14' E 001°47'917.0
2017-Aug-15 16:01N 51°23' E 001°51'917.1
2017-Aug-15 15:30N 51°31' E 001°51'918.3
2017-Aug-15 15:01N 51°40' E 001°46'1019.1
2017-Aug-15 14:31N 51°49' E 001°44'1019.3
2017-Aug-15 14:01N 51°59' E 001°44'1019.3
2017-Aug-15 13:31N 52°08' E 001°46'2017.7
2017-Aug-15 12:23N 52°28' E 001°55'719.8
2017-Aug-15 12:00N 52°35' E 001°57'918.2
2017-Aug-15 11:30N 52°44' E 001°53'1019.3
2017-Aug-15 11:00N 52°52' E 001°44'1019.2
2017-Aug-15 10:30N 52°59' E 001°33'918.5
2017-Aug-15 10:00N 53°07' E 001°25'918.3
2017-Aug-15 09:31N 53°14' E 001°16'1018.2
2017-Aug-15 08:56N 53°23' E 001°08'4018.3
2017-Aug-15 06:45N 53°57' E 000°31'417.8
2017-Aug-15 06:31N 54°01' E 000°28'917.7
2017-Aug-15 06:01N 54°08' E 000°20'191170.0
2017-Aug-15 06:00N 54°24' E 000°00'1122.4 190 / 281009.510.8 15.512.815.0
2017-Aug-15 05:31N 54°16' E 000°12'917.3
2017-Aug-15 05:01N 54°23' E 000°04'917.2
2017-Aug-15 04:31N 54°30' W 000°05'816.9
2017-Aug-15 04:01N 54°37' W 000°13'816.8
2017-Aug-15 03:31N 54°44' W 000°21'916.6
2017-Aug-15 02:59N 54°51' W 000°29'816.6
2017-Aug-15 02:31N 54°58' W 000°36'816.5
2017-Aug-15 02:01N 55°05' W 000°44'816.5
2017-Aug-15 01:31N 55°12' W 000°52'816.4
2017-Aug-15 01:01N 55°18' W 001°00'7443.1
2017-Aug-15 01:00N 55°12' W 000°54'1632.1 160 / 321008.510.8 15.512.815.0
2017-Aug-15 00:31N 55°25' W 001°08'916.9
2017-Aug-15 00:00N 55°32' W 001°17'917.2
2017-Aug-14 23:30N 55°39' W 001°25'917.2
2017-Aug-14 23:00N 55°46' W 001°35'917.4
2017-Aug-14 22:31N 55°52' W 001°45'917.7
2017-Aug-14 22:01N 55°59' W 001°56'917.3
2017-Aug-14 21:30N 56°04' W 002°09'918.0
2017-Aug-14 21:01N 56°06' W 002°25'3182.6
2017-Aug-14 21:00N 56°06' W 002°30'612.2 150 / 181009.610.8 15.512.815.0
2017-Aug-14 20:31N 56°07' W 002°41'917.9
2017-Aug-14 20:01N 56°04' W 002°56'714.7
2017-Aug-14 19:31N 56°03' W 003°09'713.0
2017-Aug-14 19:00N 56°01' W 003°20'1 0.3
2017-Aug-14 14:33N 56°00' W 003°23'0 0.2
2017-Aug-14 14:30N 56°00' W 003°23'0 0.0
2017-Aug-14 08:20N 56°00' W 003°23'0 0.0
2017-Aug-14 07:17N 56°00' W 003°23'0 0.2
2017-Aug-14 06:35N 56°00' W 003°22'0 1.0
2017-Aug-14 06:22N 56°01' W 003°22'411.4
2017-Aug-14 06:00N 56°02' W 003°15'714.9
2017-Aug-14 05:30N 56°04' W 003°02'612.6
2017-Aug-14 05:00N 56°05' W 002°51'714.0
2017-Aug-14 04:30N 56°08' W 002°40'713.7
2017-Aug-14 04:00N 56°11' W 002°28'815.4
2017-Aug-14 03:30N 56°17' W 002°21'917.7
2017-Aug-14 03:00N 56°25' W 002°12'917.7
2017-Aug-14 02:30N 56°32' W 002°04'917.6
2017-Aug-14 02:01N 56°40' W 001°58'5272.5
2017-Aug-14 02:00N 56°36' W 001°54'1225.2 160 / 251017.010.8 13.511.614.0
2017-Aug-14 01:30N 56°48' W 001°51'917.0
2017-Aug-14 01:00N 56°56' W 001°45'916.9
2017-Aug-14 00:30N 57°04' W 001°39'916.6
2017-Aug-13 23:58N 57°13' W 001°38'816.6
2017-Aug-13 23:30N 57°20' W 001°37'816.6
2017-Aug-13 23:01N 57°29' W 001°36'816.3
2017-Aug-13 22:30N 57°37' W 001°38'816.1
2017-Aug-13 22:00N 57°44' W 001°44'816.0
2017-Aug-13 21:30N 57°47' W 001°58'917.5
2017-Aug-13 21:00N 57°48' W 002°14'46 2.5
2017-Aug-13 02:13N 58°28' W 002°58'419.6
2017-Aug-13 02:00N 58°32' W 002°58'  
Track history (hours):
 
Tides and Currents Weather Stations Pressure Air Temp Water Temp Dewpoint Dewpoint Depression Visibility Wind Speed Wind Dir Waves Ship Positions

Caribbean Princess

Operator: Princess Cruises

Last reported at 2017-Aug-23 01:54 UTC. Time now 2017-Aug-23 21:29 UTC.
Position N 55°23' W 004°60'.

Type: Passenger vessel. MMSI: 310423000.

Date/timePositionNaut miles runAvg speedWind from/ knotsBaromVisibWave heightAir tempDewpointWater temp
2017-Aug-23 01:54N 55°23' W 004°60'15 9.6
2017-Aug-23 00:22N 55°13' W 005°18'410.7
2017-Aug-23 00:00N 55°10' W 005°23'510.0
2017-Aug-22 23:30N 55°09' W 005°31'918.0
2017-Aug-22 23:00N 55°00' W 005°30'445.4 140 / 301008.9 5.4 16.010.313.0
2017-Aug-22 22:54N 55°03' W 005°35'511.3
2017-Aug-22 22:25N 54°58' W 005°33'512.2
2017-Aug-22 22:00N 54°53' W 005°31'511.0
2017-Aug-22 21:30N 54°48' W 005°31'612.4
2017-Aug-22 21:00N 54°43' W 005°39'5 9.5
2017-Aug-22 20:30N 54°41' W 005°47'5 9.9
2017-Aug-22 19:59N 54°38' W 005°53'1 0.3
2017-Aug-22 16:21N 54°37' W 005°54'0 0.0
2017-Aug-22 15:51N 54°37' W 005°54'0 0.0
2017-Aug-22 15:15N 54°37' W 005°54'0 0.0
2017-Aug-22 12:21N 54°37' W 005°54'0 0.0
2017-Aug-22 11:51N 54°37' W 005°54'0 0.0
2017-Aug-22 10:36N 54°37' W 005°54'0 0.0
2017-Aug-22 10:18N 54°37' W 005°54'0 0.0
2017-Aug-22 10:00N 54°37' W 005°54'0 0.0
2017-Aug-22 09:30N 54°37' W 005°54'0 0.0
2017-Aug-22 07:55N 54°37' W 005°54'1 1.5
2017-Aug-22 07:29N 54°38' W 005°53'3 7.1
2017-Aug-22 07:00N 54°40' W 005°50'5 9.4
2017-Aug-22 06:30N 54°43' W 005°43'5 9.5
2017-Aug-22 06:00N 54°44' W 005°35'612.2
2017-Aug-22 05:30N 54°46' W 005°25'611.7
2017-Aug-22 05:00N 54°41' W 005°18'612.4
2017-Aug-22 04:30N 54°36' W 005°12'612.8
2017-Aug-22 04:00N 54°31' W 005°06'612.7
2017-Aug-22 03:30N 54°26' W 004°60'612.1
2017-Aug-22 03:00N 54°20' W 005°03'612.6
2017-Aug-22 02:30N 54°14' W 005°07'612.5
2017-Aug-22 02:00N 54°08' W 005°11'611.3
2017-Aug-22 01:29N 54°04' W 005°17'611.3
2017-Aug-22 00:59N 53°59' W 005°22'711.4
2017-Aug-22 00:23N 53°53' W 005°27'2411.1
2017-Aug-21 22:14N 53°32' W 005°47'311.8
2017-Aug-21 21:57N 53°29' W 005°49'612.0
2017-Aug-21 21:27N 53°24' W 005°55'512.5
2017-Aug-21 21:00N 53°20' W 006°02'6 0.3
2017-Aug-20 20:55N 53°21' W 006°13'0 0.0
2017-Aug-20 20:30N 53°21' W 006°13'0 0.0
2017-Aug-20 19:47N 53°21' W 006°13'0 0.0
2017-Aug-20 19:25N 53°21' W 006°13'0 0.0
2017-Aug-20 18:58N 53°21' W 006°13'0 0.0
2017-Aug-20 18:28N 53°21' W 006°13'0 0.0
2017-Aug-20 17:55N 53°21' W 006°13'0 0.0
2017-Aug-20 17:26N 53°21' W 006°13'0 0.0
2017-Aug-20 17:00N 53°21' W 006°13'0 0.0
2017-Aug-20 16:30N 53°21' W 006°13'0 0.0
2017-Aug-20 16:00N 53°21' W 006°13'0 0.0
2017-Aug-20 15:30N 53°21' W 006°13'0 0.0
2017-Aug-20 14:59N 53°21' W 006°13'0 0.0
2017-Aug-20 14:21N 53°21' W 006°13'0 0.0
2017-Aug-20 13:57N 53°21' W 006°13'0 0.0
2017-Aug-20 13:29N 53°21' W 006°13'0 0.0
2017-Aug-20 12:59N 53°21' W 006°13'0 0.0
2017-Aug-20 12:29N 53°21' W 006°13'0 0.0
2017-Aug-20 11:58N 53°21' W 006°13'0 0.0
2017-Aug-20 11:09N 53°21' W 006°13'0 0.0
2017-Aug-20 11:00N 53°21' W 006°13'0 0.0
2017-Aug-20 10:26N 53°21' W 006°13'0 0.0
2017-Aug-20 09:53N 53°21' W 006°13'0 0.0
2017-Aug-20 09:30N 53°21' W 006°13'0 0.3
2017-Aug-20 09:00N 53°21' W 006°13'4 7.1
2017-Aug-20 08:30N 53°21' W 006°07'510.1
2017-Aug-20 08:00N 53°21' W 005°59'612.0
2017-Aug-20 07:30N 53°18' W 005°50'713.5
2017-Aug-20 07:00N 53°13' W 005°43'3115.6
2017-Aug-20 05:00N 52°41' W 005°45'1019.5
2017-Aug-20 04:30N 52°32' W 005°49'918.9
2017-Aug-20 04:00N 52°23' W 005°53'918.2
2017-Aug-20 03:30N 52°14' W 005°57'817.0
2017-Aug-20 03:00N 52°06' W 006°03'816.1
2017-Aug-20 02:30N 52°02' W 006°14'917.2
2017-Aug-20 02:00N 52°00' W 006°28'2230.4
2017-Aug-20 02:00N 52°00' W 006°24'1121.9 190 / 51021.810.8 14.010.215.0
2017-Aug-20 01:30N 51°58' W 006°41'917.4
2017-Aug-20 01:00N 51°56' W 006°55'917.2
2017-Aug-20 00:30N 51°54' W 007°08'918.2
2017-Aug-20 00:00N 51°51' W 007°22'919.0
2017-Aug-19 23:30N 51°49' W 007°37'1019.1
2017-Aug-19 23:00N 51°47' W 007°52'918.4
2017-Aug-19 22:30N 51°44' W 008°07'611.7
2017-Aug-19 22:01N 51°46' W 008°15'5 9.7
2017-Aug-19 21:30N 51°51' W 008°17'1 1.4
2017-Aug-19 20:59N 51°51' W 008°18'0 0.0
2017-Aug-19 20:30N 51°51' W 008°18'0 0.0
2017-Aug-19 19:58N 51°51' W 008°18'0 0.0
2017-Aug-19 19:28N 51°51' W 008°18'0 0.0
2017-Aug-19 18:58N 51°51' W 008°18'0 0.0
2017-Aug-19 18:28N 51°51' W 008°18'0 0.0
2017-Aug-19 17:58N 51°51' W 008°18'0 0.0
2017-Aug-19 17:28N 51°51' W 008°18'0 0.0
2017-Aug-19 16:58N 51°51' W 008°18'0 0.0
2017-Aug-19 16:28N 51°51' W 008°18'0 0.0
2017-Aug-19 15:58N 51°51' W 008°18'0 0.0
2017-Aug-19 15:28N 51°51' W 008°18'0 0.0
2017-Aug-19 15:00N 51°51' W 008°18'0 0.0
2017-Aug-19 14:00N 51°51' W 008°18'0 0.0
2017-Aug-19 13:30N 51°51' W 008°18'0 0.0
2017-Aug-19 13:00N 51°51' W 008°18'0 0.0
2017-Aug-19 12:29N 51°51' W 008°18'0 0.0
2017-Aug-19 11:59N 51°51' W 008°18'0 0.0
2017-Aug-19 11:29N 51°51' W 008°18'0 0.0
2017-Aug-19 10:59N 51°51' W 008°18'0 0.0
2017-Aug-19 10:30N 51°51' W 008°18'2 3.2
2017-Aug-19 10:01N 51°50' W 008°16'612.7
2017-Aug-19 09:30N 51°44' W 008°14'612.2
2017-Aug-19 09:01N 51°40' W 008°08'917.5
2017-Aug-19 08:31N 51°34' W 007°58'917.4
2017-Aug-19 08:01N 51°28' W 007°47'917.3
2017-Aug-19 07:31N 51°22' W 007°37'7751.0
2017-Aug-19 06:00N 50°06' W 007°12'4914.5 280 / 371018.810.8 15.013.215.0
2017-Aug-19 02:38N 50°26' W 006°03'316.8
2017-Aug-19 02:29N 50°24' W 005°60'816.0
2017-Aug-19 02:01N 50°18' W 005°54'1218.1
2017-Aug-19 01:21N 50°06' W 005°55'618.1
2017-Aug-19 01:00N 49°59' W 005°54'2715.8
2017-Aug-18 23:16N 49°48' W 005°16'517.3
2017-Aug-18 22:57N 49°46' W 005°08'2917.3
2017-Aug-18 21:16N 49°39' W 004°24'617.6
2017-Aug-18 20:54N 49°38' W 004°14'717.7
2017-Aug-18 20:30N 49°36' W 004°04'917.8
2017-Aug-18 20:00N 49°34' W 003°50'917.7
2017-Aug-18 19:29N 49°32' W 003°37'816.1
2017-Aug-18 18:58N 49°30' W 003°24'4 9.1
2017-Aug-18 18:29N 49°29' W 003°17'19 1.1
2017-Aug-18 01:48N 49°39' W 002°53'412.3
2017-Aug-18 01:28N 49°43' W 002°53'912.5
2017-Aug-18 00:47N 49°52' W 002°56'412.9
2017-Aug-18 00:30N 49°55' W 002°58'611.7
2017-Aug-18 00:00N 49°58' W 002°51'713.4
2017-Aug-17 23:30N 50°00' W 002°41'2214.2
2017-Aug-17 21:59N 50°09' W 002°10'814.9
2017-Aug-17 21:26N 50°13' W 001°59'614.4
2017-Aug-17 21:00N 50°16' W 001°50'713.9
2017-Aug-17 20:29N 50°19' W 001°41'714.0
2017-Aug-17 20:00N 50°23' W 001°31'815.9
2017-Aug-17 19:30N 50°26' W 001°21'917.4
2017-Aug-17 19:01N 50°31' W 001°09'816.1
2017-Aug-17 18:31N 50°36' W 000°60'713.1
2017-Aug-17 18:00N 50°43' W 000°60'815.2
2017-Aug-17 17:30N 50°46' W 001°11'510.4
2017-Aug-17 17:01N 50°49' W 001°18'510.2
2017-Aug-17 16:30N 50°52' W 001°23'1 0.1
2017-Aug-17 08:10N 50°53' W 001°24'0 0.0
2017-Aug-17 07:58N 50°53' W 001°24'0 0.0
2017-Aug-17 07:28N 50°53' W 001°24'0 0.0
2017-Aug-17 06:58N 50°53' W 001°24'0 0.0
2017-Aug-17 06:28N 50°53' W 001°24'0 0.0
2017-Aug-17 05:58N 50°53' W 001°24'0 0.0
2017-Aug-17 05:28N 50°53' W 001°24'0 0.0
2017-Aug-17 04:58N 50°53' W 001°24'0 0.0
2017-Aug-17 04:28N 50°53' W 001°24'0 0.0
2017-Aug-17 03:58N 50°53' W 001°24'0 0.6
2017-Aug-17 03:30N 50°53' W 001°24'510.4
2017-Aug-17 03:00N 50°50' W 001°18'4 8.9
2017-Aug-17 02:30N 50°46' W 001°14'815.1
2017-Aug-17 02:00N 50°44' W 001°03'510.4
2017-Aug-17 01:30N 50°39' W 000°58'611.5
2017-Aug-17 01:01N 50°34' W 000°59'612.0
2017-Aug-17 00:30N 50°28' W 000°54'611.9
2017-Aug-17 00:00N 50°24' W 000°48'611.3
2017-Aug-16 23:30N 50°18' W 000°46'611.3
2017-Aug-16 23:00N 50°13' W 000°44'611.5
2017-Aug-16 22:30N 50°07' W 000°40'611.6
2017-Aug-16 22:01N 50°02' W 000°37'611.6
2017-Aug-16 21:30N 49°57' W 000°33'611.7
2017-Aug-16 21:01N 49°52' W 000°30'1512.2
2017-Aug-16 19:48N 49°37' W 000°24'414.3
2017-Aug-16 19:30N 49°35' W 000°19'713.4
2017-Aug-16 18:59N 49°32' W 000°09'611.4
2017-Aug-16 18:30N 49°30' W 000°01'510.8
2017-Aug-16 18:00N 49°29' E 000°06'0 0.2
2017-Aug-16 17:29N 49°29' E 000°06'0 0.0
2017-Aug-16 16:58N 49°29' E 000°06'0 0.0
2017-Aug-16 16:30N 49°29' E 000°06'0 0.0
2017-Aug-16 16:00N 49°29' E 000°06'0 0.0
2017-Aug-16 15:29N 49°29' E 000°06'0 0.0
2017-Aug-16 15:00N 49°29' E 000°06'0 0.0
2017-Aug-16 14:30N 49°29' E 000°06'0 0.0
2017-Aug-16 14:00N 49°29' E 000°06'0 0.0
2017-Aug-16 13:29N 49°29' E 000°06'0 0.0
2017-Aug-16 12:57N 49°29' E 000°06'0 0.0
2017-Aug-16 12:30N 49°29' E 000°06'0 0.0
2017-Aug-16 11:59N 49°29' E 000°06'0 0.0
2017-Aug-16 11:29N 49°29' E 000°06'0 0.0
2017-Aug-16 10:58N 49°29' E 000°06'0 0.0
2017-Aug-16 10:30N 49°29' E 000°06'0 0.0
2017-Aug-16 10:00N 49°29' E 000°06'0 0.0
2017-Aug-16 09:29N 49°29' E 000°06'0 0.0
2017-Aug-16 08:59N 49°29' E 000°06'0 0.0
2017-Aug-16 08:29N 49°29' E 000°06'0 0.0
2017-Aug-16 08:00N 49°29' E 000°06'0 0.0
2017-Aug-16 07:30N 49°29' E 000°06'0 0.0
2017-Aug-16 07:00N 49°29' E 000°06'0 0.0
2017-Aug-16 06:29N 49°29' E 000°06'0 0.0
2017-Aug-16 05:58N 49°29' E 000°06'0 0.0
2017-Aug-16 05:30N 49°29' E 000°06'0 0.0
2017-Aug-16 05:00N 49°29' E 000°06'0 0.0
2017-Aug-16 04:30N 49°29' E 000°06'1 1.2
2017-Aug-16 04:00N 49°29' E 000°07'4 8.5
2017-Aug-16 03:30N 49°30' E 000°01'713.6
2017-Aug-16 03:00N 49°32' W 000°09'611.2
2017-Aug-16 02:30N 49°34' W 000°17'713.7
2017-Aug-16 02:00N 49°40' W 000°21'263969.0
2017-Aug-16 02:00N 49°48' E 000°18'2643.3 250 / 141021.310.8 16.314.015.0
2017-Aug-16 01:23N 49°48' W 000°23'512.9
2017-Aug-16 01:00N 49°53' W 000°19'713.1
2017-Aug-16 00:31N 49°59' W 000°14'713.5
2017-Aug-16 00:00N 50°05' W 000°09'713.5
2017-Aug-15 23:30N 50°11' W 000°05'714.2
2017-Aug-15 23:00N 50°18' W 000°07'713.8
2017-Aug-15 22:30N 50°24' W 000°09'713.9
2017-Aug-15 22:01N 50°28' E 000°01'714.5
2017-Aug-15 21:30N 50°30' E 000°12'714.5
2017-Aug-15 21:00N 50°32' E 000°23'714.4
2017-Aug-15 20:30N 50°35' E 000°33'714.0
2017-Aug-15 20:00N 50°38' E 000°43'816.0
2017-Aug-15 19:31N 50°43' E 000°53'816.7
2017-Aug-15 19:01N 50°48' E 001°04'816.2
2017-Aug-15 18:30N 50°52' E 001°15'815.3
2017-Aug-15 18:01N 50°58' E 001°23'715.0
2017-Aug-15 17:31N 51°03' E 001°31'815.0
2017-Aug-15 17:01N 51°09' E 001°39'815.4
2017-Aug-15 16:31N 51°14' E 001°47'917.0
2017-Aug-15 16:01N 51°23' E 001°51'917.1
2017-Aug-15 15:30N 51°31' E 001°51'918.3
2017-Aug-15 15:01N 51°40' E 001°46'1019.1
2017-Aug-15 14:31N 51°49' E 001°44'1019.3
2017-Aug-15 14:01N 51°59' E 001°44'1019.3
2017-Aug-15 13:31N 52°08' E 001°46'2017.7
2017-Aug-15 12:23N 52°28' E 001°55'719.8
2017-Aug-15 12:00N 52°35' E 001°57'918.2
2017-Aug-15 11:30N 52°44' E 001°53'1019.3
2017-Aug-15 11:00N 52°52' E 001°44'1019.2
2017-Aug-15 10:30N 52°59' E 001°33'918.5
2017-Aug-15 10:00N 53°07' E 001°25'918.3
2017-Aug-15 09:31N 53°14' E 001°16'1018.2
2017-Aug-15 08:56N 53°23' E 001°08'4018.3
2017-Aug-15 06:45N 53°57' E 000°31'417.8
2017-Aug-15 06:31N 54°01' E 000°28'917.7
2017-Aug-15 06:01N 54°08' E 000°20'191170.0
2017-Aug-15 06:00N 54°24' E 000°00'1122.4 190 / 281009.510.8 15.512.815.0
2017-Aug-15 05:31N 54°16' E 000°12'917.3
2017-Aug-15 05:01N 54°23' E 000°04'917.2
2017-Aug-15 04:31N 54°30' W 000°05'816.9
2017-Aug-15 04:01N 54°37' W 000°13'816.8
2017-Aug-15 03:31N 54°44' W 000°21'916.6
2017-Aug-15 02:59N 54°51' W 000°29'816.6
2017-Aug-15 02:31N 54°58' W 000°36'816.5
2017-Aug-15 02:01N 55°05' W 000°44'816.5
2017-Aug-15 01:31N 55°12' W 000°52'816.4
2017-Aug-15 01:01N 55°18' W 001°00'7443.1
2017-Aug-15 01:00N 55°12' W 000°54'1632.1 160 / 321008.510.8 15.512.815.0
2017-Aug-15 00:31N 55°25' W 001°08'916.9
2017-Aug-15 00:00N 55°32' W 001°17'917.2
2017-Aug-14 23:30N 55°39' W 001°25'917.2
2017-Aug-14 23:00N 55°46' W 001°35'917.4
2017-Aug-14 22:31N 55°52' W 001°45'917.7
2017-Aug-14 22:01N 55°59' W 001°56'917.3
2017-Aug-14 21:30N 56°04' W 002°09'918.0
2017-Aug-14 21:01N 56°06' W 002°25'3182.6
2017-Aug-14 21:00N 56°06' W 002°30'612.2 150 / 181009.610.8 15.512.815.0
2017-Aug-14 20:31N 56°07' W 002°41'917.9
2017-Aug-14 20:01N 56°04' W 002°56'714.7
2017-Aug-14 19:31N 56°03' W 003°09'713.0
2017-Aug-14 19:00N 56°01' W 003°20'1 0.3
2017-Aug-14 14:33N 56°00' W 003°23'0 0.2
2017-Aug-14 14:30N 56°00' W 003°23'0 0.0
2017-Aug-14 08:20N 56°00' W 003°23'0 0.0
2017-Aug-14 07:17N 56°00' W 003°23'0 0.2
2017-Aug-14 06:35N 56°00' W 003°22'0 1.0
2017-Aug-14 06:22N 56°01' W 003°22'411.4
2017-Aug-14 06:00N 56°02' W 003°15'714.9
2017-Aug-14 05:30N 56°04' W 003°02'612.6
2017-Aug-14 05:00N 56°05' W 002°51'714.0
2017-Aug-14 04:30N 56°08' W 002°40'713.7
2017-Aug-14 04:00N 56°11' W 002°28'815.4
2017-Aug-14 03:30N 56°17' W 002°21'917.7
2017-Aug-14 03:00N 56°25' W 002°12'917.7
2017-Aug-14 02:30N 56°32' W 002°04'917.6
2017-Aug-14 02:01N 56°40' W 001°58'5272.5
2017-Aug-14 02:00N 56°36' W 001°54'1225.2 160 / 251017.010.8 13.511.614.0
2017-Aug-14 01:30N 56°48' W 001°51'917.0
2017-Aug-14 01:00N 56°56' W 001°45'916.9
2017-Aug-14 00:30N 57°04' W 001°39'916.6
2017-Aug-13 23:58N 57°13' W 001°38'816.6
2017-Aug-13 23:30N 57°20' W 001°37'816.6
2017-Aug-13 23:01N 57°29' W 001°36'816.3
2017-Aug-13 22:30N 57°37' W 001°38'816.1
2017-Aug-13 22:00N 57°44' W 001°44'816.0
2017-Aug-13 21:30N 57°47' W 001°58'917.5
2017-Aug-13 21:00N 57°48' W 002°14'46 2.5
2017-Aug-13 02:13N 58°28' W 002°58'419.6
2017-Aug-13 02:00N 58°32' W 002°58'  

Dump ship's entire track history